sensor_id;sensor_type;location;lat;lon;timestamp;pressure;altitude;pressure_sealevel;temperature;humidity
39891;BME280;25564;53.312;9.790;2022-07-04T00:00:44;101110.31;;;15.51;73.52
39891;BME280;25564;53.312;9.790;2022-07-04T00:03:15;101114.84;;;15.49;73.87
39891;BME280;25564;53.312;9.790;2022-07-04T00:05:47;101108.72;;;15.46;74.22
39891;BME280;25564;53.312;9.790;2022-07-04T00:08:19;101121.28;;;15.42;74.31
39891;BME280;25564;53.312;9.790;2022-07-04T00:10:50;101123.16;;;15.40;74.49
39891;BME280;25564;53.312;9.790;2022-07-04T00:13:21;101118.81;;;15.36;74.52
39891;BME280;25564;53.312;9.790;2022-07-04T00:15:53;101111.72;;;15.35;74.96
39891;BME280;25564;53.312;9.790;2022-07-04T00:18:25;101123.38;;;15.32;74.96
39891;BME280;25564;53.312;9.790;2022-07-04T00:20:56;101112.00;;;15.26;74.75
39891;BME280;25564;53.312;9.790;2022-07-04T00:23:27;101118.16;;;15.28;74.85
39891;BME280;25564;53.312;9.790;2022-07-04T00:25:59;101114.63;;;15.27;75.25
39891;BME280;25564;53.312;9.790;2022-07-04T00:28:30;101108.50;;;15.24;75.23
39891;BME280;25564;53.312;9.790;2022-07-04T00:31:02;101105.88;;;15.22;75.17
39891;BME280;25564;53.312;9.790;2022-07-04T00:33:33;101098.94;;;15.15;75.34
39891;BME280;25564;53.312;9.790;2022-07-04T00:36:04;101104.19;;;15.18;75.20
39891;BME280;25564;53.312;9.790;2022-07-04T00:38:36;101078.91;;;15.00;75.49
39891;BME280;25564;53.312;9.790;2022-07-04T00:41:07;101100.88;;;15.10;75.38
39891;BME280;25564;53.312;9.790;2022-07-04T00:43:38;101090.66;;;14.95;75.46
39891;BME280;25564;53.312;9.790;2022-07-04T00:46:30;101089.03;;;14.89;75.43
39891;BME280;25564;53.312;9.790;2022-07-04T00:49:05;101106.56;;;14.99;75.61
39891;BME280;25564;53.312;9.790;2022-07-04T00:51:39;101097.13;;;14.86;75.66
39891;BME280;25564;53.312;9.790;2022-07-04T00:54:13;101115.56;;;14.95;75.66
39891;BME280;25564;53.312;9.790;2022-07-04T00:56:45;101104.16;;;14.90;75.58
39891;BME280;25564;53.312;9.790;2022-07-04T00:59:16;101112.91;;;14.95;75.83
39891;BME280;25564;53.312;9.790;2022-07-04T01:01:48;101112.03;;;14.95;75.83
39891;BME280;25564;53.312;9.790;2022-07-04T01:04:20;101102.22;;;14.95;75.86
39891;BME280;25564;53.312;9.790;2022-07-04T01:06:52;101095.22;;;14.91;75.91
39891;BME280;25564;53.312;9.790;2022-07-04T01:09:23;101110.06;;;15.01;75.89
39891;BME280;25564;53.312;9.790;2022-07-04T01:11:55;101113.56;;;15.03;76.23
39891;BME280;25564;53.312;9.790;2022-07-04T01:14:26;101108.16;;;15.05;76.10
39891;BME280;25564;53.312;9.790;2022-07-04T01:16:57;101107.16;;;15.09;76.30
39891;BME280;25564;53.312;9.790;2022-07-04T01:19:29;101113.28;;;15.13;76.20
39891;BME280;25564;53.312;9.790;2022-07-04T01:22:05;101102.69;;;15.10;76.25
39891;BME280;25564;53.312;9.790;2022-07-04T01:24:37;101107.09;;;15.11;76.14
39891;BME280;25564;53.312;9.790;2022-07-04T01:27:08;101114.13;;;15.15;76.23
39891;BME280;25564;53.312;9.790;2022-07-04T01:29:40;101109.47;;;15.21;76.56
39891;BME280;25564;53.312;9.790;2022-07-04T01:32:11;101107.47;;;15.28;76.51
39891;BME280;25564;53.312;9.790;2022-07-04T01:34:43;101112.63;;;15.34;76.22
39891;BME280;25564;53.312;9.790;2022-07-04T01:37:15;101094.00;;;15.31;76.15
39891;BME280;25564;53.312;9.790;2022-07-04T01:39:46;101117.47;;;15.51;76.13
39891;BME280;25564;53.312;9.790;2022-07-04T01:42:17;101104.81;;;15.56;76.50
39891;BME280;25564;53.312;9.790;2022-07-04T01:44:49;101109.22;;;15.58;76.42
39891;BME280;25564;53.312;9.790;2022-07-04T01:47:20;101107.44;;;15.59;76.43
39891;BME280;25564;53.312;9.790;2022-07-04T01:49:52;101092.41;;;15.53;76.77
39891;BME280;25564;53.312;9.790;2022-07-04T01:52:23;101107.19;;;15.65;76.85
39891;BME280;25564;53.312;9.790;2022-07-04T01:54:54;101124.94;;;15.67;76.47
39891;BME280;25564;53.312;9.790;2022-07-04T01:57:26;101122.38;;;15.64;76.58
39891;BME280;25564;53.312;9.790;2022-07-04T01:59:57;101137.31;;;15.72;76.69
39891;BME280;25564;53.312;9.790;2022-07-04T02:02:47;101123.00;;;15.73;76.53
39891;BME280;25564;53.312;9.790;2022-07-04T02:05:18;101121.25;;;15.72;76.94
39891;BME280;25564;53.312;9.790;2022-07-04T02:07:50;101121.25;;;15.72;76.99
39891;BME280;25564;53.312;9.790;2022-07-04T02:10:22;101110.66;;;15.68;76.95
39891;BME280;25564;53.312;9.790;2022-07-04T02:12:53;101115.19;;;15.66;76.43
39891;BME280;25564;53.312;9.790;2022-07-04T02:15:39;101117.75;;;15.69;76.74
39891;BME280;25564;53.312;9.790;2022-07-04T02:18:12;101118.69;;;15.68;76.86
39891;BME280;25564;53.312;9.790;2022-07-04T02:20:44;101105.63;;;15.59;76.84
39891;BME280;25564;53.312;9.790;2022-07-04T02:23:15;101119.59;;;15.67;76.83
39891;BME280;25564;53.312;9.790;2022-07-04T02:25:47;101129.56;;;15.62;76.77
39891;BME280;25564;53.312;9.790;2022-07-04T02:28:18;101121.72;;;15.58;76.85
39891;BME280;25564;53.312;9.790;2022-07-04T02:30:49;101105.88;;;15.50;76.61
39891;BME280;25564;53.312;9.790;2022-07-04T02:33:21;101120.00;;;15.55;77.33
39891;BME280;25564;53.312;9.790;2022-07-04T02:35:52;101120.88;;;15.56;76.88
39891;BME280;25564;53.312;9.790;2022-07-04T02:38:24;101107.63;;;15.51;76.97
39891;BME280;25564;53.312;9.790;2022-07-04T02:40:55;101123.41;;;15.60;76.98
39891;BME280;25564;53.312;9.790;2022-07-04T02:43:26;101128.59;;;15.65;77.19
39891;BME280;25564;53.312;9.790;2022-07-04T02:45:58;101131.19;;;15.68;77.36
39891;BME280;25564;53.312;9.790;2022-07-04T02:48:29;101118.78;;;15.65;76.81
39891;BME280;25564;53.312;9.790;2022-07-04T02:51:07;101121.25;;;15.72;76.89
39891;BME280;25564;53.312;9.790;2022-07-04T02:53:39;101119.50;;;15.70;77.22
39891;BME280;25564;53.312;9.790;2022-07-04T02:56:10;101128.47;;;15.69;77.00
39891;BME280;25564;53.312;9.790;2022-07-04T02:58:42;101124.94;;;15.67;76.96
39891;BME280;25564;53.312;9.790;2022-07-04T03:01:14;101120.63;;;15.63;77.17
39891;BME280;25564;53.312;9.790;2022-07-04T03:03:46;101125.16;;;15.61;76.83
39891;BME280;25564;53.312;9.790;2022-07-04T03:06:18;101115.66;;;15.51;77.07
39891;BME280;25564;53.312;9.790;2022-07-04T03:08:49;101125.28;;;15.58;77.34
39891;BME280;25564;53.312;9.790;2022-07-04T03:11:20;101124.41;;;15.58;77.14
39891;BME280;25564;53.312;9.790;2022-07-04T03:13:52;101127.03;;;15.59;77.21
39891;BME280;25564;53.312;9.790;2022-07-04T03:16:23;101127.81;;;15.61;77.34
39891;BME280;25564;53.312;9.790;2022-07-04T03:18:55;101130.50;;;15.61;77.50
39891;BME280;25564;53.312;9.790;2022-07-04T03:21:26;101134.84;;;15.65;77.20
39891;BME280;25564;53.312;9.790;2022-07-04T03:23:58;101141.84;;;15.69;76.79
39891;BME280;25564;53.312;9.790;2022-07-04T03:26:31;101137.22;;;15.75;77.03
39891;BME280;25564;53.312;9.790;2022-07-04T03:29:02;101143.41;;;15.77;77.25
39891;BME280;25564;53.312;9.790;2022-07-04T03:31:34;101149.38;;;15.85;77.08
39891;BME280;25564;53.312;9.790;2022-07-04T03:34:06;101133.50;;;15.79;77.00
39891;BME280;25564;53.312;9.790;2022-07-04T03:36:37;101147.56;;;15.85;76.95
39891;BME280;25564;53.312;9.790;2022-07-04T03:39:08;101156.38;;;15.89;76.95
39891;BME280;25564;53.312;9.790;2022-07-04T03:41:40;101158.22;;;15.87;77.06
39891;BME280;25564;53.312;9.790;2022-07-04T03:44:11;101168.94;;;15.87;77.13
39891;BME280;25564;53.312;9.790;2022-07-04T03:46:42;101172.53;;;15.86;76.65
39891;BME280;25564;53.312;9.790;2022-07-04T03:49:14;101177.91;;;15.86;76.81
39891;BME280;25564;53.312;9.790;2022-07-04T03:51:46;101177.00;;;15.85;76.55
39891;BME280;25564;53.312;9.790;2022-07-04T03:54:17;101172.63;;;15.83;76.99
39891;BME280;25564;53.312;9.790;2022-07-04T03:56:48;101181.69;;;15.79;76.38
39891;BME280;25564;53.312;9.790;2022-07-04T03:59:20;101176.53;;;15.73;76.92
39891;BME280;25564;53.312;9.790;2022-07-04T04:01:51;101178.31;;;15.72;77.00
39891;BME280;25564;53.312;9.790;2022-07-04T04:04:23;101171.31;;;15.68;77.06
39891;BME280;25564;53.312;9.790;2022-07-04T04:07:13;101180.75;;;15.80;77.17
39891;BME280;25564;53.312;9.790;2022-07-04T04:09:44;101184.16;;;15.85;76.95
39891;BME280;25564;53.312;9.790;2022-07-04T04:12:16;101189.63;;;15.82;77.07
39891;BME280;25564;53.312;9.790;2022-07-04T04:14:47;101199.22;;;15.89;76.74
39891;BME280;25564;53.312;9.790;2022-07-04T04:17:19;101196.53;;;15.89;77.09
39891;BME280;25564;53.312;9.790;2022-07-04T04:19:51;101199.94;;;15.94;76.86
39891;BME280;25564;53.312;9.790;2022-07-04T04:22:22;101194.69;;;15.91;77.03
39891;BME280;25564;53.312;9.790;2022-07-04T04:24:53;101206.06;;;15.97;76.99
39891;BME280;25564;53.312;9.790;2022-07-04T04:27:25;101201.59;;;15.98;76.89
39891;BME280;25564;53.312;9.790;2022-07-04T04:29:56;101209.63;;;15.98;76.76
39891;BME280;25564;53.312;9.790;2022-07-04T04:32:27;101214.06;;;15.99;76.77
39891;BME280;25564;53.312;9.790;2022-07-04T04:34:59;101216.69;;;16.00;76.45
39891;BME280;25564;53.312;9.790;2022-07-04T04:37:30;101232.59;;;16.05;76.52
39891;BME280;25564;53.312;9.790;2022-07-04T04:40:02;101213.13;;;16.00;76.96
39891;BME280;25564;53.312;9.790;2022-07-04T04:42:34;101233.41;;;16.07;76.73
39891;BME280;25564;53.312;9.790;2022-07-04T04:45:07;101238.72;;;16.09;76.70
39891;BME280;25564;53.312;9.790;2022-07-04T04:47:39;101240.47;;;16.10;76.55
39891;BME280;25564;53.312;9.790;2022-07-04T04:50:10;101236.09;;;16.07;76.63
39891;BME280;25564;53.312;9.790;2022-07-04T04:52:43;101240.44;;;16.11;76.62
39891;BME280;25564;53.312;9.790;2022-07-04T04:55:14;101239.47;;;16.14;76.87
39891;BME280;25564;53.312;9.790;2022-07-04T04:57:46;101241.16;;;16.16;76.61
39891;BME280;25564;53.312;9.790;2022-07-04T05:00:17;101229.47;;;16.19;76.68
39891;BME280;25564;53.312;9.790;2022-07-04T05:02:49;101235.59;;;16.22;76.46
39891;BME280;25564;53.312;9.790;2022-07-04T05:05:20;101233.75;;;16.24;76.67
39891;BME280;25564;53.312;9.790;2022-07-04T05:07:51;101232.00;;;16.23;76.51
39891;BME280;25564;53.312;9.790;2022-07-04T05:10:23;101238.34;;;16.21;76.41
39891;BME280;25564;53.312;9.790;2022-07-04T05:12:54;101239.94;;;16.26;76.30
39891;BME280;25564;53.312;9.790;2022-07-04T05:15:26;101237.94;;;16.33;76.42
39891;BME280;25564;53.312;9.790;2022-07-04T05:17:57;101239.69;;;16.34;76.54
39891;BME280;25564;53.312;9.790;2022-07-04T05:20:29;101238.72;;;16.37;76.40
39891;BME280;25564;53.312;9.790;2022-07-04T05:23:00;101250.97;;;16.44;76.40
39891;BME280;25564;53.312;9.790;2022-07-04T05:25:32;101236.50;;;16.49;76.27
39891;BME280;25564;53.312;9.790;2022-07-04T05:28:03;101229.28;;;16.51;76.27
39891;BME280;25564;53.312;9.790;2022-07-04T05:30:35;101240.56;;;16.61;75.77
39891;BME280;25564;53.312;9.790;2022-07-04T05:33:06;101235.81;;;16.69;75.95
39891;BME280;25564;53.312;9.790;2022-07-04T05:35:37;101232.94;;;16.75;75.72
39891;BME280;25564;53.312;9.790;2022-07-04T05:38:09;101240.75;;;16.81;75.59
39891;BME280;25564;53.312;9.790;2022-07-04T05:40:41;101237.75;;;16.90;75.45
39891;BME280;25564;53.312;9.790;2022-07-04T05:43:12;101247.34;;;16.97;75.34
39891;BME280;25564;53.312;9.790;2022-07-04T05:45:43;101232.91;;;17.02;74.98
39891;BME280;25564;53.312;9.790;2022-07-04T05:48:15;101242.31;;;17.13;74.92
39891;BME280;25564;53.312;9.790;2022-07-04T05:50:46;101242.84;;;17.23;74.71
39891;BME280;25564;53.312;9.790;2022-07-04T05:53:18;101240.88;;;17.28;74.54
39891;BME280;25564;53.312;9.790;2022-07-04T05:55:49;101228.56;;;17.46;75.21
39891;BME280;25564;53.312;9.790;2022-07-04T05:58:21;101224.94;;;18.37;75.36
39891;BME280;25564;53.312;9.790;2022-07-04T06:00:52;101230.47;;;19.75;72.83
39891;BME280;25564;53.312;9.790;2022-07-04T06:03:24;101229.56;;;21.00;68.56
39891;BME280;25564;53.312;9.790;2022-07-04T06:05:55;101235.38;;;21.91;66.29
39891;BME280;25564;53.312;9.790;2022-07-04T06:08:27;101234.78;;;22.79;64.08
39891;BME280;25564;53.312;9.790;2022-07-04T06:10:58;101224.31;;;23.45;61.57
39891;BME280;25564;53.312;9.790;2022-07-04T06:13:29;101233.97;;;23.92;59.77
39891;BME280;25564;53.312;9.790;2022-07-04T06:16:01;101235.78;;;24.06;59.19
39891;BME280;25564;53.312;9.790;2022-07-04T06:18:32;101227.50;;;24.36;58.27
39891;BME280;25564;53.312;9.790;2022-07-04T06:21:04;101212.63;;;24.68;57.35
39891;BME280;25564;53.312;9.790;2022-07-04T06:23:35;101226.16;;;25.08;55.87
39891;BME280;25564;53.312;9.790;2022-07-04T06:26:07;101239.75;;;25.46;55.64
39891;BME280;25564;53.312;9.790;2022-07-04T06:28:38;101241.06;;;25.66;54.62
39891;BME280;25564;53.312;9.790;2022-07-04T06:31:18;101248.44;;;25.89;53.36
39891;BME280;25564;53.312;9.790;2022-07-04T06:33:50;101252.59;;;26.06;52.77
39891;BME280;25564;53.312;9.790;2022-07-04T06:36:39;101240.47;;;26.23;51.18
39891;BME280;25564;53.312;9.790;2022-07-04T06:39:12;101251.47;;;26.21;51.36
39891;BME280;25564;53.312;9.790;2022-07-04T06:41:43;101261.47;;;26.21;50.93
39891;BME280;25564;53.312;9.790;2022-07-04T06:44:14;101262.59;;;26.05;50.84
39891;BME280;25564;53.312;9.790;2022-07-04T06:46:46;101252.34;;;25.85;50.29
39891;BME280;25564;53.312;9.790;2022-07-04T06:49:17;101248.88;;;26.07;51.50
39891;BME280;25564;53.312;9.790;2022-07-04T06:51:48;101250.97;;;26.40;50.51
39891;BME280;25564;53.312;9.790;2022-07-04T06:54:20;101239.09;;;26.04;50.70
39891;BME280;25564;53.312;9.790;2022-07-04T06:56:51;101262.69;;;25.67;50.80
39891;BME280;25564;53.312;9.790;2022-07-04T06:59:43;101254.94;;;25.10;50.72
39891;BME280;25564;53.312;9.790;2022-07-04T07:02:15;101245.59;;;24.62;51.30
39891;BME280;25564;53.312;9.790;2022-07-04T07:04:46;101240.13;;;24.08;52.04
39891;BME280;25564;53.312;9.790;2022-07-04T07:07:18;101246.22;;;23.85;52.97
39891;BME280;25564;53.312;9.790;2022-07-04T07:09:50;101246.50;;;23.80;53.33
39891;BME280;25564;53.312;9.790;2022-07-04T07:12:22;101241.25;;;23.92;53.71
39891;BME280;25564;53.312;9.790;2022-07-04T07:14:55;101244.31;;;24.00;53.66
39891;BME280;25564;53.312;9.790;2022-07-04T07:17:27;101241.31;;;24.04;53.28
39891;BME280;25564;53.312;9.790;2022-07-04T07:19:58;101245.69;;;23.93;52.88
39891;BME280;25564;53.312;9.790;2022-07-04T07:22:30;101248.31;;;23.52;52.57
39891;BME280;25564;53.312;9.790;2022-07-04T07:25:01;101245.34;;;22.98;53.23
39891;BME280;25564;53.312;9.790;2022-07-04T07:27:33;101239.41;;;22.77;53.92
39891;BME280;25564;53.312;9.790;2022-07-04T07:30:05;101232.59;;;22.86;54.32
39891;BME280;25564;53.312;9.790;2022-07-04T07:32:37;101240.56;;;23.17;54.18
39891;BME280;25564;53.312;9.790;2022-07-04T07:35:08;101244.16;;;23.32;53.64
39891;BME280;25564;53.312;9.790;2022-07-04T07:37:39;101247.72;;;23.18;53.32
39891;BME280;25564;53.312;9.790;2022-07-04T07:40:11;101241.69;;;22.99;53.34
39891;BME280;25564;53.312;9.790;2022-07-04T07:42:42;101243.50;;;22.84;53.61
39891;BME280;25564;53.312;9.790;2022-07-04T07:45:14;101234.34;;;22.87;54.02
39891;BME280;25564;53.312;9.790;2022-07-04T07:47:46;101247.03;;;23.14;53.40
39891;BME280;25564;53.312;9.790;2022-07-04T07:50:17;101254.09;;;23.17;53.18
39891;BME280;25564;53.312;9.790;2022-07-04T07:52:49;101257.00;;;23.14;52.46
39891;BME280;25564;53.312;9.790;2022-07-04T07:55:20;101231.16;;;23.08;52.64
39891;BME280;25564;53.312;9.790;2022-07-04T07:57:52;101244.34;;;23.29;52.17
39891;BME280;25564;53.312;9.790;2022-07-04T08:00:24;101249.84;;;23.27;51.98
39891;BME280;25564;53.312;9.790;2022-07-04T08:03:15;101246.94;;;23.16;51.99
39891;BME280;25564;53.312;9.790;2022-07-04T08:06:06;101244.66;;;23.38;52.12
39891;BME280;25564;53.312;9.790;2022-07-04T08:08:37;101246.81;;;23.62;51.29
39891;BME280;25564;53.312;9.790;2022-07-04T08:11:10;101237.50;;;23.80;50.94
39891;BME280;25564;53.312;9.790;2022-07-04T08:13:42;101256.66;;;23.91;50.53
39891;BME280;25564;53.312;9.790;2022-07-04T08:16:13;101259.72;;;23.99;50.37
39891;BME280;25564;53.312;9.790;2022-07-04T08:18:45;101247.03;;;24.00;50.26
39891;BME280;25564;53.312;9.790;2022-07-04T08:21:16;101256.66;;;23.91;49.60
39891;BME280;25564;53.312;9.790;2022-07-04T08:23:48;101249.41;;;23.92;50.31
39891;BME280;25564;53.312;9.790;2022-07-04T08:26:39;101253.13;;;24.44;50.45
39891;BME280;25564;53.312;9.790;2022-07-04T08:29:11;101260.72;;;24.66;49.17
39891;BME280;25564;53.312;9.790;2022-07-04T08:31:42;101263.06;;;24.58;48.46
39891;BME280;25564;53.312;9.790;2022-07-04T08:34:22;101260.00;;;24.50;49.13
39891;BME280;25564;53.312;9.790;2022-07-04T08:36:53;101263.00;;;24.72;48.18
39891;BME280;25564;53.312;9.790;2022-07-04T08:39:25;101252.41;;;24.95;47.70
39891;BME280;25564;53.312;9.790;2022-07-04T08:42:01;101254.75;;;25.26;46.41
39891;BME280;25564;53.312;9.790;2022-07-04T08:44:38;101262.78;;;25.40;46.19
39891;BME280;25564;53.312;9.790;2022-07-04T08:47:11;101260.94;;;25.54;45.85
39891;BME280;25564;53.312;9.790;2022-07-04T08:52:43;101259.09;;;25.41;45.85
39891;BME280;25564;53.312;9.790;2022-07-04T08:55:18;101265.28;;;25.43;45.16
39891;BME280;25564;53.312;9.790;2022-07-04T08:58:09;101265.94;;;25.47;44.98
39891;BME280;25564;53.312;9.790;2022-07-04T09:01:04;101265.19;;;25.58;44.72
39891;BME280;25564;53.312;9.790;2022-07-04T09:03:36;101268.44;;;25.63;45.46
39891;BME280;25564;53.312;9.790;2022-07-04T09:06:08;101255.19;;;25.46;45.09
39891;BME280;25564;53.312;9.790;2022-07-04T09:08:40;101265.50;;;25.40;44.90
39891;BME280;25564;53.312;9.790;2022-07-04T09:11:11;101261.47;;;25.46;44.85
39891;BME280;25564;53.312;9.790;2022-07-04T09:13:43;101262.13;;;25.50;44.14
39891;BME280;25564;53.312;9.790;2022-07-04T09:16:15;101255.50;;;25.41;44.39
39891;BME280;25564;53.312;9.790;2022-07-04T09:18:46;101251.25;;;25.24;43.87
39891;BME280;25564;53.312;9.790;2022-07-04T09:21:17;101247.03;;;25.20;43.96
39891;BME280;25564;53.312;9.790;2022-07-04T09:23:49;101249.41;;;25.37;44.02
39891;BME280;25564;53.312;9.790;2022-07-04T09:26:21;101242.25;;;25.36;44.49
39891;BME280;25564;53.312;9.790;2022-07-04T09:28:55;101242.34;;;25.35;44.14
39891;BME280;25564;53.312;9.790;2022-07-04T09:31:30;101249.41;;;25.37;44.74
39891;BME280;25564;53.312;9.790;2022-07-04T09:34:04;101249.41;;;25.50;44.68
39891;BME280;25564;53.312;9.790;2022-07-04T09:36:41;101258.56;;;25.36;44.08
39891;BME280;25564;53.312;9.790;2022-07-04T09:39:16;101254.41;;;25.05;43.86
39891;BME280;25564;53.312;9.790;2022-07-04T09:42:03;101233.84;;;24.89;44.19
39891;BME280;25564;53.312;9.790;2022-07-04T09:44:46;101243.63;;;25.04;44.15
39891;BME280;25564;53.312;9.790;2022-07-04T09:47:23;101234.91;;;24.86;43.96
39891;BME280;25564;53.312;9.790;2022-07-04T09:50:12;101232.13;;;24.61;44.10
39891;BME280;25564;53.312;9.790;2022-07-04T09:52:45;101237.81;;;24.70;44.54
39891;BME280;25564;53.312;9.790;2022-07-04T09:58:01;101232.78;;;25.04;43.61
39891;BME280;25564;53.312;9.790;2022-07-04T10:00:40;101229.63;;;24.97;44.24
39891;BME280;25564;53.312;9.790;2022-07-04T10:03:22;101238.53;;;24.99;44.06
39891;BME280;25564;53.312;9.790;2022-07-04T10:08:35;101225.06;;;25.74;44.46
39891;BME280;25564;53.312;9.790;2022-07-04T10:11:07;101243.41;;;25.96;43.45
39891;BME280;25564;53.312;9.790;2022-07-04T10:13:42;101242.13;;;25.76;43.16
39891;BME280;25564;53.312;9.790;2022-07-04T10:16:15;101236.38;;;25.68;43.57
39891;BME280;25564;53.312;9.790;2022-07-04T10:18:47;101244.06;;;25.87;43.37
39891;BME280;25564;53.312;9.790;2022-07-04T10:21:19;101239.28;;;25.90;42.68
39891;BME280;25564;53.312;9.790;2022-07-04T10:23:51;101235.59;;;25.79;42.35
39891;BME280;25564;53.312;9.790;2022-07-04T10:26:23;101232.56;;;25.58;43.09
39891;BME280;25564;53.312;9.790;2022-07-04T10:28:55;101229.97;;;25.43;43.15
39891;BME280;25564;53.312;9.790;2022-07-04T10:31:28;101231.59;;;25.33;42.81
39891;BME280;25564;53.312;9.790;2022-07-04T10:34:01;101226.91;;;25.35;42.96
39891;BME280;25564;53.312;9.790;2022-07-04T10:36:33;101224.09;;;25.50;42.92
39891;BME280;25564;53.312;9.790;2022-07-04T10:39:05;101237.91;;;25.72;43.47
39891;BME280;25564;53.312;9.790;2022-07-04T10:41:56;101227.56;;;25.77;42.50
39891;BME280;25564;53.312;9.790;2022-07-04T10:44:28;101233.75;;;25.54;42.38
39891;BME280;25564;53.312;9.790;2022-07-04T10:47:21;101215.06;;;25.36;42.46
39891;BME280;25564;53.312;9.790;2022-07-04T10:49:59;101217.25;;;25.44;43.31
39891;BME280;25564;53.312;9.790;2022-07-04T10:52:30;101219.41;;;25.52;43.03
39891;BME280;25564;53.312;9.790;2022-07-04T10:55:10;101204.84;;;25.53;42.71
39891;BME280;25564;53.312;9.790;2022-07-04T10:57:42;101223.31;;;25.73;43.11
39891;BME280;25564;53.312;9.790;2022-07-04T11:00:15;101215.38;;;26.06;43.12
39891;BME280;25564;53.312;9.790;2022-07-04T11:02:46;101222.44;;;26.46;43.12
39891;BME280;25564;53.312;9.790;2022-07-04T11:05:30;101212.47;;;26.57;40.96
39891;BME280;25564;53.312;9.790;2022-07-04T11:08:02;101202.31;;;26.59;41.93
39891;BME280;25564;53.312;9.790;2022-07-04T11:10:37;101202.16;;;26.85;42.49
39891;BME280;25564;53.312;9.790;2022-07-04T11:13:14;101201.13;;;27.21;41.91
39891;BME280;25564;53.312;9.790;2022-07-04T11:18:18;101203.50;;;27.81;40.42
39891;BME280;25564;53.312;9.790;2022-07-04T11:20:51;101208.22;;;27.79;39.90
39891;BME280;25564;53.312;9.790;2022-07-04T11:23:22;101211.22;;;27.76;39.84
39891;BME280;25564;53.312;9.790;2022-07-04T11:25:56;101193.09;;;27.75;40.20
39891;BME280;25564;53.312;9.790;2022-07-04T11:28:30;101196.44;;;27.90;39.96
39891;BME280;25564;53.312;9.790;2022-07-04T11:31:15;101187.84;;;28.06;40.73
39891;BME280;25564;53.312;9.790;2022-07-04T11:33:53;101193.84;;;28.20;39.44
39891;BME280;25564;53.312;9.790;2022-07-04T11:36:25;101204.16;;;28.17;39.69
39891;BME280;25564;53.312;9.790;2022-07-04T11:39:19;101184.03;;;27.86;38.67
39891;BME280;25564;53.312;9.790;2022-07-04T11:41:52;101189.38;;;27.54;39.01
39891;BME280;25564;53.312;9.790;2022-07-04T11:44:46;101185.16;;;27.27;40.11
39891;BME280;25564;53.312;9.790;2022-07-04T11:47:37;101177.97;;;27.38;39.46
39891;BME280;25564;53.312;9.790;2022-07-04T11:50:11;101175.25;;;27.38;39.78
39891;BME280;25564;53.312;9.790;2022-07-04T11:52:45;101169.41;;;27.42;39.21
39891;BME280;25564;53.312;9.790;2022-07-04T11:55:37;101172.16;;;27.42;38.75
39891;BME280;25564;53.312;9.790;2022-07-04T11:58:08;101169.66;;;27.39;38.53
39891;BME280;25564;53.312;9.790;2022-07-04T12:00:44;101163.13;;;27.64;38.74
39891;BME280;25564;53.312;9.790;2022-07-04T12:03:16;101168.41;;;27.88;38.26
39891;BME280;25564;53.312;9.790;2022-07-04T12:06:00;101163.94;;;27.87;37.75
39891;BME280;25564;53.312;9.790;2022-07-04T12:08:32;101161.50;;;27.73;38.04
39891;BME280;25564;53.312;9.790;2022-07-04T12:11:03;101154.56;;;27.46;37.86
39891;BME280;25564;53.312;9.790;2022-07-04T12:13:34;101138.81;;;27.27;38.70
39891;BME280;25564;53.312;9.790;2022-07-04T12:16:11;101135.84;;;27.19;38.80
39891;BME280;25564;53.312;9.790;2022-07-04T12:18:43;101140.81;;;27.25;38.69
39891;BME280;25564;53.312;9.790;2022-07-04T12:21:16;101139.31;;;27.21;37.92
39891;BME280;25564;53.312;9.790;2022-07-04T12:23:54;101139.94;;;27.25;38.79
39891;BME280;25564;53.312;9.790;2022-07-04T12:26:46;101133.84;;;27.44;39.61
39891;BME280;25564;53.312;9.790;2022-07-04T12:29:25;101134.22;;;27.73;38.94
39891;BME280;25564;53.312;9.790;2022-07-04T12:32:03;101140.38;;;27.97;38.38
39891;BME280;25564;53.312;9.790;2022-07-04T12:34:35;101118.47;;;28.08;37.38
39891;BME280;25564;53.312;9.790;2022-07-04T12:37:12;101120.63;;;28.37;37.55
39891;BME280;25564;53.312;9.790;2022-07-04T12:39:44;101121.56;;;28.68;36.79
39891;BME280;25564;53.312;9.790;2022-07-04T12:42:18;101123.34;;;28.78;36.41
39891;BME280;25564;53.312;9.790;2022-07-04T12:44:50;101120.69;;;28.67;36.56
39891;BME280;25564;53.312;9.790;2022-07-04T12:47:22;101124.16;;;28.69;36.44
39891;BME280;25564;53.312;9.790;2022-07-04T12:50:12;101121.09;;;28.42;35.92
39891;BME280;25564;53.312;9.790;2022-07-04T12:52:44;101111.34;;;28.28;36.75
39891;BME280;25564;53.312;9.790;2022-07-04T12:55:16;101122.47;;;28.36;36.54
39891;BME280;25564;53.312;9.790;2022-07-04T12:57:47;101123.09;;;28.40;36.36
39891;BME280;25564;53.312;9.790;2022-07-04T13:00:18;101125.28;;;28.67;37.00
39891;BME280;25564;53.312;9.790;2022-07-04T13:03:07;101120.56;;;29.10;36.37
39891;BME280;25564;53.312;9.790;2022-07-04T13:05:38;101114.09;;;29.21;35.95
39891;BME280;25564;53.312;9.790;2022-07-04T13:08:10;101109.19;;;29.15;35.47
39891;BME280;25564;53.312;9.790;2022-07-04T13:10:43;101114.16;;;29.00;35.78
39891;BME280;25564;53.312;9.790;2022-07-04T13:13:14;101116.97;;;28.89;36.12
39891;BME280;25564;53.312;9.790;2022-07-04T13:15:45;101117.44;;;28.73;35.51
39891;BME280;25564;53.312;9.790;2022-07-04T13:18:17;101113.88;;;28.41;36.71
39891;BME280;25564;53.312;9.790;2022-07-04T13:20:48;101118.81;;;28.15;35.65
39891;BME280;25564;53.312;9.790;2022-07-04T13:23:20;101123.41;;;27.82;36.68
39891;BME280;25564;53.312;9.790;2022-07-04T13:25:51;101111.06;;;27.67;37.04
39891;BME280;25564;53.312;9.790;2022-07-04T13:28:22;101107.19;;;27.58;37.49
39891;BME280;25564;53.312;9.790;2022-07-04T13:30:54;101117.44;;;27.88;38.08
39891;BME280;25564;53.312;9.790;2022-07-04T13:33:26;101101.16;;;28.30;36.99